sensor_id;sensor_type;location;lat;lon;timestamp;temperature;humidity
15717;DHT22;7960;50.908;4.204;2023-03-23T00:01:48;12.60;99.90
15717;DHT22;7960;50.908;4.204;2023-03-23T00:04:16;12.60;99.90
15717;DHT22;7960;50.908;4.204;2023-03-23T00:06:44;12.60;99.90
15717;DHT22;7960;50.908;4.204;2023-03-23T00:09:12;12.60;99.90
15717;DHT22;7960;50.908;4.204;2023-03-23T00:11:41;12.50;99.90
15717;DHT22;7960;50.908;4.204;2023-03-23T00:14:09;12.60;99.90
15717;DHT22;7960;50.908;4.204;2023-03-23T00:16:39;12.60;99.90
15717;DHT22;7960;50.908;4.204;2023-03-23T00:19:08;12.60;99.90
15717;DHT22;7960;50.908;4.204;2023-03-23T00:21:36;12.60;99.90
15717;DHT22;7960;50.908;4.204;2023-03-23T00:24:07;12.60;99.90
15717;DHT22;7960;50.908;4.204;2023-03-23T00:26:36;12.50;99.90
15717;DHT22;7960;50.908;4.204;2023-03-23T00:29:07;12.50;99.90
15717;DHT22;7960;50.908;4.204;2023-03-23T00:31:35;12.50;99.90
15717;DHT22;7960;50.908;4.204;2023-03-23T00:34:03;12.60;99.90
15717;DHT22;7960;50.908;4.204;2023-03-23T00:36:31;12.60;99.90
15717;DHT22;7960;50.908;4.204;2023-03-23T00:39:00;12.60;99.90
15717;DHT22;7960;50.908;4.204;2023-03-23T00:41:29;12.60;99.90
15717;DHT22;7960;50.908;4.204;2023-03-23T00:43:57;12.60;99.90
15717;DHT22;7960;50.908;4.204;2023-03-23T00:46:26;12.60;99.90
15717;DHT22;7960;50.908;4.204;2023-03-23T00:48:53;12.60;99.90
15717;DHT22;7960;50.908;4.204;2023-03-23T00:51:22;12.60;99.90
15717;DHT22;7960;50.908;4.204;2023-03-23T00:53:49;12.60;99.90
15717;DHT22;7960;50.908;4.204;2023-03-23T00:56:16;12.70;99.90
15717;DHT22;7960;50.908;4.204;2023-03-23T00:58:45;12.70;99.90
15717;DHT22;7960;50.908;4.204;2023-03-23T01:01:11;12.80;99.90
15717;DHT22;7960;50.908;4.204;2023-03-23T01:03:38;12.80;99.90
15717;DHT22;7960;50.908;4.204;2023-03-23T01:06:07;12.80;99.90
15717;DHT22;7960;50.908;4.204;2023-03-23T01:08:39;12.80;99.90
15717;DHT22;7960;50.908;4.204;2023-03-23T01:11:11;12.80;99.90
15717;DHT22;7960;50.908;4.204;2023-03-23T01:13:38;12.90;99.90
15717;DHT22;7960;50.908;4.204;2023-03-23T01:16:07;12.80;99.90
15717;DHT22;7960;50.908;4.204;2023-03-23T01:18:34;12.80;99.90
15717;DHT22;7960;50.908;4.204;2023-03-23T01:21:04;12.80;99.90
15717;DHT22;7960;50.908;4.204;2023-03-23T01:23:32;12.80;99.90
15717;DHT22;7960;50.908;4.204;2023-03-23T01:26:03;12.80;99.90
15717;DHT22;7960;50.908;4.204;2023-03-23T01:28:30;12.70;99.90
15717;DHT22;7960;50.908;4.204;2023-03-23T01:31:00;12.70;99.90
15717;DHT22;7960;50.908;4.204;2023-03-23T01:33:28;12.70;99.90
15717;DHT22;7960;50.908;4.204;2023-03-23T01:35:56;12.60;99.90
15717;DHT22;7960;50.908;4.204;2023-03-23T01:38:23;12.60;99.90
15717;DHT22;7960;50.908;4.204;2023-03-23T01:40:50;12.70;99.90
15717;DHT22;7960;50.908;4.204;2023-03-23T01:43:17;12.70;99.90
15717;DHT22;7960;50.908;4.204;2023-03-23T01:45:44;12.60;99.90
15717;DHT22;7960;50.908;4.204;2023-03-23T01:48:15;12.60;99.90
15717;DHT22;7960;50.908;4.204;2023-03-23T01:50:55;12.60;99.90
15717;DHT22;7960;50.908;4.204;2023-03-23T01:53:25;12.60;99.90
15717;DHT22;7960;50.908;4.204;2023-03-23T01:55:54;12.60;99.90
15717;DHT22;7960;50.908;4.204;2023-03-23T01:58:26;12.60;99.90
15717;DHT22;7960;50.908;4.204;2023-03-23T02:00:54;12.60;99.90
15717;DHT22;7960;50.908;4.204;2023-03-23T02:03:21;12.70;99.90
15717;DHT22;7960;50.908;4.204;2023-03-23T02:05:51;12.60;99.90
15717;DHT22;7960;50.908;4.204;2023-03-23T02:08:18;12.60;99.90
15717;DHT22;7960;50.908;4.204;2023-03-23T02:10:46;12.60;99.90
15717;DHT22;7960;50.908;4.204;2023-03-23T02:13:13;12.60;99.90
15717;DHT22;7960;50.908;4.204;2023-03-23T02:15:47;12.60;99.90
15717;DHT22;7960;50.908;4.204;2023-03-23T02:18:23;12.60;99.90
15717;DHT22;7960;50.908;4.204;2023-03-23T02:24:11;12.60;99.90
15717;DHT22;7960;50.908;4.204;2023-03-23T02:26:49;12.60;99.90
15717;DHT22;7960;50.908;4.204;2023-03-23T02:29:42;12.60;99.90
15717;DHT22;7960;50.908;4.204;2023-03-23T02:32:20;12.50;99.90
15717;DHT22;7960;50.908;4.204;2023-03-23T02:34:51;12.50;99.90
15717;DHT22;7960;50.908;4.204;2023-03-23T02:37:22;12.50;99.90
15717;DHT22;7960;50.908;4.204;2023-03-23T02:39:56;12.50;99.90
15717;DHT22;7960;50.908;4.204;2023-03-23T02:42:27;12.50;99.90
15717;DHT22;7960;50.908;4.204;2023-03-23T02:44:58;12.50;99.90
15717;DHT22;7960;50.908;4.204;2023-03-23T02:47:27;12.50;99.90
15717;DHT22;7960;50.908;4.204;2023-03-23T02:49:58;12.50;99.90
15717;DHT22;7960;50.908;4.204;2023-03-23T02:52:28;12.50;99.90
15717;DHT22;7960;50.908;4.204;2023-03-23T02:54:57;12.50;99.90
15717;DHT22;7960;50.908;4.204;2023-03-23T02:57:25;12.50;99.90
15717;DHT22;7960;50.908;4.204;2023-03-23T02:59:54;12.50;99.90
15717;DHT22;7960;50.908;4.204;2023-03-23T03:02:22;12.50;99.90
15717;DHT22;7960;50.908;4.204;2023-03-23T03:04:55;12.50;99.90
15717;DHT22;7960;50.908;4.204;2023-03-23T03:07:44;12.40;99.90
15717;DHT22;7960;50.908;4.204;2023-03-23T03:10:19;12.40;99.90
15717;DHT22;7960;50.908;4.204;2023-03-23T03:12:55;12.40;99.90
15717;DHT22;7960;50.908;4.204;2023-03-23T03:15:27;12.40;99.90
15717;DHT22;7960;50.908;4.204;2023-03-23T03:18:00;12.40;99.90
15717;DHT22;7960;50.908;4.204;2023-03-23T03:20:30;12.40;99.90
15717;DHT22;7960;50.908;4.204;2023-03-23T03:22:59;12.40;99.90
15717;DHT22;7960;50.908;4.204;2023-03-23T03:25:27;12.40;99.90
15717;DHT22;7960;50.908;4.204;2023-03-23T03:27:55;12.30;99.90
15717;DHT22;7960;50.908;4.204;2023-03-23T03:30:26;12.40;99.90
15717;DHT22;7960;50.908;4.204;2023-03-23T03:32:56;12.40;99.90
15717;DHT22;7960;50.908;4.204;2023-03-23T03:35:26;12.40;99.90
15717;DHT22;7960;50.908;4.204;2023-03-23T03:37:53;12.40;99.90
15717;DHT22;7960;50.908;4.204;2023-03-23T03:40:22;12.40;99.90
15717;DHT22;7960;50.908;4.204;2023-03-23T03:42:49;12.40;99.90
15717;DHT22;7960;50.908;4.204;2023-03-23T03:45:18;12.40;99.90
15717;DHT22;7960;50.908;4.204;2023-03-23T03:47:45;12.40;99.90
15717;DHT22;7960;50.908;4.204;2023-03-23T03:50:13;12.40;99.90
15717;DHT22;7960;50.908;4.204;2023-03-23T03:52:40;12.40;99.90
15717;DHT22;7960;50.908;4.204;2023-03-23T03:55:08;12.40;99.90
15717;DHT22;7960;50.908;4.204;2023-03-23T03:57:37;12.40;99.90
15717;DHT22;7960;50.908;4.204;2023-03-23T04:00:06;12.40;99.90
15717;DHT22;7960;50.908;4.204;2023-03-23T04:02:44;12.40;99.90
15717;DHT22;7960;50.908;4.204;2023-03-23T04:05:17;12.40;99.90
15717;DHT22;7960;50.908;4.204;2023-03-23T04:07:46;12.40;99.90
15717;DHT22;7960;50.908;4.204;2023-03-23T04:10:17;12.40;99.90
15717;DHT22;7960;50.908;4.204;2023-03-23T04:12:48;12.40;99.90
15717;DHT22;7960;50.908;4.204;2023-03-23T04:15:15;12.40;99.90
15717;DHT22;7960;50.908;4.204;2023-03-23T04:17:42;12.30;99.90
15717;DHT22;7960;50.908;4.204;2023-03-23T04:20:11;12.30;99.90
15717;DHT22;7960;50.908;4.204;2023-03-23T04:22:42;12.30;99.90
15717;DHT22;7960;50.908;4.204;2023-03-23T04:25:11;12.30;99.90
15717;DHT22;7960;50.908;4.204;2023-03-23T04:27:38;12.30;99.90
15717;DHT22;7960;50.908;4.204;2023-03-23T04:30:12;12.30;99.90
15717;DHT22;7960;50.908;4.204;2023-03-23T04:32:40;12.30;99.90
15717;DHT22;7960;50.908;4.204;2023-03-23T04:35:09;12.30;99.90
15717;DHT22;7960;50.908;4.204;2023-03-23T04:37:37;12.40;99.90
15717;DHT22;7960;50.908;4.204;2023-03-23T04:40:05;12.30;99.90
15717;DHT22;7960;50.908;4.204;2023-03-23T04:42:37;12.30;99.90
15717;DHT22;7960;50.908;4.204;2023-03-23T04:45:06;12.30;99.90
15717;DHT22;7960;50.908;4.204;2023-03-23T04:47:36;12.30;99.90
15717;DHT22;7960;50.908;4.204;2023-03-23T04:50:07;12.30;99.90
15717;DHT22;7960;50.908;4.204;2023-03-23T04:52:35;12.20;99.90
15717;DHT22;7960;50.908;4.204;2023-03-23T04:55:04;12.20;99.90
15717;DHT22;7960;50.908;4.204;2023-03-23T04:57:31;12.10;99.90
15717;DHT22;7960;50.908;4.204;2023-03-23T04:59:58;12.10;99.90
15717;DHT22;7960;50.908;4.204;2023-03-23T05:02:26;12.10;99.90
15717;DHT22;7960;50.908;4.204;2023-03-23T05:04:57;12.10;99.90
15717;DHT22;7960;50.908;4.204;2023-03-23T05:07:24;12.10;99.90
15717;DHT22;7960;50.908;4.204;2023-03-23T05:09:51;12.10;99.90
15717;DHT22;7960;50.908;4.204;2023-03-23T05:12:18;12.10;99.90
15717;DHT22;7960;50.908;4.204;2023-03-23T05:14:45;12.10;99.90
15717;DHT22;7960;50.908;4.204;2023-03-23T05:17:12;12.10;99.90
15717;DHT22;7960;50.908;4.204;2023-03-23T05:19:42;12.10;99.90
15717;DHT22;7960;50.908;4.204;2023-03-23T05:22:29;12.00;99.90
15717;DHT22;7960;50.908;4.204;2023-03-23T05:24:58;12.00;99.90
15717;DHT22;7960;50.908;4.204;2023-03-23T05:27:24;12.10;99.90
15717;DHT22;7960;50.908;4.204;2023-03-23T05:29:53;12.10;99.90
15717;DHT22;7960;50.908;4.204;2023-03-23T05:32:20;12.00;99.90
15717;DHT22;7960;50.908;4.204;2023-03-23T05:34:55;12.10;99.90
15717;DHT22;7960;50.908;4.204;2023-03-23T05:37:23;12.10;99.90
15717;DHT22;7960;50.908;4.204;2023-03-23T05:39:51;12.10;99.90
15717;DHT22;7960;50.908;4.204;2023-03-23T05:42:19;12.10;99.90
15717;DHT22;7960;50.908;4.204;2023-03-23T05:44:46;12.10;99.90
15717;DHT22;7960;50.908;4.204;2023-03-23T05:47:13;12.10;99.90
15717;DHT22;7960;50.908;4.204;2023-03-23T05:49:41;12.10;99.90
15717;DHT22;7960;50.908;4.204;2023-03-23T05:52:08;12.10;99.90
15717;DHT22;7960;50.908;4.204;2023-03-23T05:54:36;12.10;99.90
15717;DHT22;7960;50.908;4.204;2023-03-23T05:57:04;12.10;99.90
15717;DHT22;7960;50.908;4.204;2023-03-23T05:59:31;12.10;99.90
15717;DHT22;7960;50.908;4.204;2023-03-23T06:01:59;12.10;99.90
15717;DHT22;7960;50.908;4.204;2023-03-23T06:04:26;12.20;99.90
15717;DHT22;7960;50.908;4.204;2023-03-23T06:06:53;12.20;99.90
15717;DHT22;7960;50.908;4.204;2023-03-23T06:09:21;12.20;99.90
15717;DHT22;7960;50.908;4.204;2023-03-23T06:11:49;12.20;99.90
15717;DHT22;7960;50.908;4.204;2023-03-23T06:14:17;12.20;99.90
15717;DHT22;7960;50.908;4.204;2023-03-23T06:16:44;12.20;99.90
15717;DHT22;7960;50.908;4.204;2023-03-23T06:19:11;12.20;99.90
15717;DHT22;7960;50.908;4.204;2023-03-23T06:21:38;12.20;99.90
15717;DHT22;7960;50.908;4.204;2023-03-23T06:24:05;12.20;99.90
15717;DHT22;7960;50.908;4.204;2023-03-23T06:26:34;12.20;99.90
15717;DHT22;7960;50.908;4.204;2023-03-23T06:29:02;12.10;99.90
15717;DHT22;7960;50.908;4.204;2023-03-23T06:31:38;11.80;99.90
15717;DHT22;7960;50.908;4.204;2023-03-23T06:34:06;11.30;99.90
15717;DHT22;7960;50.908;4.204;2023-03-23T06:36:33;11.00;99.90
15717;DHT22;7960;50.908;4.204;2023-03-23T06:39:00;10.70;99.90
15717;DHT22;7960;50.908;4.204;2023-03-23T06:41:29;10.50;99.90
15717;DHT22;7960;50.908;4.204;2023-03-23T06:43:56;10.50;99.90
15717;DHT22;7960;50.908;4.204;2023-03-23T06:46:23;10.30;99.90
15717;DHT22;7960;50.908;4.204;2023-03-23T06:48:52;10.20;99.90
15717;DHT22;7960;50.908;4.204;2023-03-23T06:51:19;10.10;99.90
15717;DHT22;7960;50.908;4.204;2023-03-23T06:53:46;10.10;99.90
15717;DHT22;7960;50.908;4.204;2023-03-23T06:56:13;10.00;99.90
15717;DHT22;7960;50.908;4.204;2023-03-23T06:58:40;10.00;99.90
15717;DHT22;7960;50.908;4.204;2023-03-23T07:01:07;9.90;99.90
15717;DHT22;7960;50.908;4.204;2023-03-23T07:03:35;9.90;99.90
15717;DHT22;7960;50.908;4.204;2023-03-23T07:06:04;9.90;99.90
15717;DHT22;7960;50.908;4.204;2023-03-23T07:08:31;9.80;99.90
15717;DHT22;7960;50.908;4.204;2023-03-23T07:10:58;9.70;99.90
15717;DHT22;7960;50.908;4.204;2023-03-23T07:13:25;9.70;99.90
15717;DHT22;7960;50.908;4.204;2023-03-23T07:15:52;9.70;99.90
15717;DHT22;7960;50.908;4.204;2023-03-23T07:18:20;9.70;99.90
15717;DHT22;7960;50.908;4.204;2023-03-23T07:20:47;9.80;99.90
15717;DHT22;7960;50.908;4.204;2023-03-23T07:23:16;9.80;99.90
15717;DHT22;7960;50.908;4.204;2023-03-23T07:25:43;9.80;99.90
15717;DHT22;7960;50.908;4.204;2023-03-23T07:28:11;9.90;99.90
15717;DHT22;7960;50.908;4.204;2023-03-23T07:30:38;10.00;99.90
15717;DHT22;7960;50.908;4.204;2023-03-23T07:33:06;10.00;99.90
15717;DHT22;7960;50.908;4.204;2023-03-23T07:35:34;10.00;99.90
15717;DHT22;7960;50.908;4.204;2023-03-23T07:38:02;10.00;99.90
15717;DHT22;7960;50.908;4.204;2023-03-23T07:40:30;10.10;99.90
15717;DHT22;7960;50.908;4.204;2023-03-23T07:42:59;10.20;99.90
15717;DHT22;7960;50.908;4.204;2023-03-23T07:45:27;10.30;99.90
15717;DHT22;7960;50.908;4.204;2023-03-23T07:47:54;10.30;99.90
15717;DHT22;7960;50.908;4.204;2023-03-23T07:50:22;10.30;99.90
15717;DHT22;7960;50.908;4.204;2023-03-23T07:52:50;10.30;99.90
15717;DHT22;7960;50.908;4.204;2023-03-23T07:55:17;10.30;99.90
15717;DHT22;7960;50.908;4.204;2023-03-23T07:57:47;10.40;99.90
15717;DHT22;7960;50.908;4.204;2023-03-23T08:00:15;10.40;99.90
15717;DHT22;7960;50.908;4.204;2023-03-23T08:02:45;10.50;99.90
15717;DHT22;7960;50.908;4.204;2023-03-23T08:05:13;10.60;99.90
15717;DHT22;7960;50.908;4.204;2023-03-23T08:07:41;10.70;99.90
15717;DHT22;7960;50.908;4.204;2023-03-23T08:10:10;10.70;99.90
15717;DHT22;7960;50.908;4.204;2023-03-23T08:12:38;10.70;99.90
15717;DHT22;7960;50.908;4.204;2023-03-23T08:15:09;10.60;99.90
15717;DHT22;7960;50.908;4.204;2023-03-23T08:17:39;10.60;99.90
15717;DHT22;7960;50.908;4.204;2023-03-23T08:20:07;10.50;99.90
15717;DHT22;7960;50.908;4.204;2023-03-23T08:22:38;10.50;99.90
15717;DHT22;7960;50.908;4.204;2023-03-23T08:25:08;10.60;99.90
15717;DHT22;7960;50.908;4.204;2023-03-23T08:27:35;10.50;99.90
15717;DHT22;7960;50.908;4.204;2023-03-23T08:30:03;10.40;99.90
15717;DHT22;7960;50.908;4.204;2023-03-23T08:32:32;10.30;99.90
15717;DHT22;7960;50.908;4.204;2023-03-23T08:34:59;10.30;99.90
15717;DHT22;7960;50.908;4.204;2023-03-23T08:37:25;10.40;99.90
15717;DHT22;7960;50.908;4.204;2023-03-23T08:39:56;10.40;99.90
15717;DHT22;7960;50.908;4.204;2023-03-23T08:42:23;10.40;99.90
15717;DHT22;7960;50.908;4.204;2023-03-23T08:44:50;10.40;99.90
15717;DHT22;7960;50.908;4.204;2023-03-23T08:47:18;10.40;99.90
15717;DHT22;7960;50.908;4.204;2023-03-23T08:49:47;10.50;99.90
15717;DHT22;7960;50.908;4.204;2023-03-23T08:52:18;10.60;99.90
15717;DHT22;7960;50.908;4.204;2023-03-23T08:54:45;10.70;99.90
15717;DHT22;7960;50.908;4.204;2023-03-23T08:57:13;10.80;99.90
15717;DHT22;7960;50.908;4.204;2023-03-23T08:59:41;10.80;99.90
15717;DHT22;7960;50.908;4.204;2023-03-23T09:02:10;10.80;99.90
15717;DHT22;7960;50.908;4.204;2023-03-23T09:04:38;10.80;99.90
15717;DHT22;7960;50.908;4.204;2023-03-23T09:07:09;10.80;99.90
15717;DHT22;7960;50.908;4.204;2023-03-23T09:09:37;10.80;99.90
15717;DHT22;7960;50.908;4.204;2023-03-23T09:12:06;10.90;99.90
15717;DHT22;7960;50.908;4.204;2023-03-23T09:14:32;11.00;99.90
15717;DHT22;7960;50.908;4.204;2023-03-23T09:16:59;11.00;99.90
15717;DHT22;7960;50.908;4.204;2023-03-23T09:19:26;10.90;99.90
15717;DHT22;7960;50.908;4.204;2023-03-23T09:21:53;10.90;99.90
15717;DHT22;7960;50.908;4.204;2023-03-23T09:24:22;11.00;99.90
15717;DHT22;7960;50.908;4.204;2023-03-23T09:26:49;11.10;99.90
15717;DHT22;7960;50.908;4.204;2023-03-23T09:29:15;11.00;99.90
15717;DHT22;7960;50.908;4.204;2023-03-23T09:31:44;11.20;99.90
15717;DHT22;7960;50.908;4.204;2023-03-23T09:34:12;11.30;99.90
15717;DHT22;7960;50.908;4.204;2023-03-23T09:36:40;11.40;99.90
15717;DHT22;7960;50.908;4.204;2023-03-23T09:39:08;11.60;99.90
15717;DHT22;7960;50.908;4.204;2023-03-23T09:44:33;12.10;99.90
15717;DHT22;7960;50.908;4.204;2023-03-23T09:47:06;12.20;99.90
15717;DHT22;7960;50.908;4.204;2023-03-23T09:49:39;12.30;99.90
15717;DHT22;7960;50.908;4.204;2023-03-23T09:52:11;12.40;99.90
15717;DHT22;7960;50.908;4.204;2023-03-23T09:54:39;12.40;99.90
15717;DHT22;7960;50.908;4.204;2023-03-23T09:57:14;12.40;99.90
15717;DHT22;7960;50.908;4.204;2023-03-23T09:59:51;12.50;99.90
15717;DHT22;7960;50.908;4.204;2023-03-23T10:02:24;12.40;99.90
15717;DHT22;7960;50.908;4.204;2023-03-23T10:04:56;12.50;99.90
15717;DHT22;7960;50.908;4.204;2023-03-23T10:07:26;12.40;99.90
15717;DHT22;7960;50.908;4.204;2023-03-23T10:09:56;12.40;99.90
15717;DHT22;7960;50.908;4.204;2023-03-23T10:12:39;12.50;99.90
15717;DHT22;7960;50.908;4.204;2023-03-23T10:15:14;12.60;99.90
15717;DHT22;7960;50.908;4.204;2023-03-23T10:17:46;12.70;99.90
15717;DHT22;7960;50.908;4.204;2023-03-23T10:20:31;12.70;99.90
15717;DHT22;7960;50.908;4.204;2023-03-23T10:23:05;12.60;99.90
15717;DHT22;7960;50.908;4.204;2023-03-23T10:25:40;12.80;99.90
15717;DHT22;7960;50.908;4.204;2023-03-23T10:28:11;12.80;99.90
15717;DHT22;7960;50.908;4.204;2023-03-23T10:30:41;12.70;99.90
15717;DHT22;7960;50.908;4.204;2023-03-23T10:33:13;12.80;99.90
15717;DHT22;7960;50.908;4.204;2023-03-23T10:35:47;12.80;99.90
15717;DHT22;7960;50.908;4.204;2023-03-23T10:38:19;12.80;99.90
15717;DHT22;7960;50.908;4.204;2023-03-23T10:40:50;12.90;99.90
15717;DHT22;7960;50.908;4.204;2023-03-23T10:43:20;12.90;99.90
15717;DHT22;7960;50.908;4.204;2023-03-23T10:45:55;12.80;99.90
15717;DHT22;7960;50.908;4.204;2023-03-23T10:48:27;12.90;99.90
15717;DHT22;7960;50.908;4.204;2023-03-23T10:50:58;12.90;99.90
15717;DHT22;7960;50.908;4.204;2023-03-23T10:53:31;13.00;99.90
15717;DHT22;7960;50.908;4.204;2023-03-23T10:55:59;13.20;99.90
15717;DHT22;7960;50.908;4.204;2023-03-23T10:58:29;13.20;99.90
15717;DHT22;7960;50.908;4.204;2023-03-23T11:00:57;13.20;99.90
15717;DHT22;7960;50.908;4.204;2023-03-23T11:03:39;13.20;99.90
15717;DHT22;7960;50.908;4.204;2023-03-23T11:06:11;13.30;99.90
15717;DHT22;7960;50.908;4.204;2023-03-23T11:08:48;13.40;99.90
15717;DHT22;7960;50.908;4.204;2023-03-23T11:11:19;13.60;99.90
15717;DHT22;7960;50.908;4.204;2023-03-23T11:13:55;13.70;99.90
15717;DHT22;7960;50.908;4.204;2023-03-23T11:16:24;13.80;99.90
15717;DHT22;7960;50.908;4.204;2023-03-23T11:18:51;14.00;99.90
15717;DHT22;7960;50.908;4.204;2023-03-23T11:21:20;13.90;99.90
15717;DHT22;7960;50.908;4.204;2023-03-23T11:23:50;14.10;99.90
15717;DHT22;7960;50.908;4.204;2023-03-23T11:26:20;14.20;99.90
15717;DHT22;7960;50.908;4.204;2023-03-23T11:28:53;14.40;99.90
15717;DHT22;7960;50.908;4.204;2023-03-23T11:31:23;14.90;99.90
15717;DHT22;7960;50.908;4.204;2023-03-23T11:33:53;14.90;99.90
15717;DHT22;7960;50.908;4.204;2023-03-23T11:36:27;14.90;99.90
15717;DHT22;7960;50.908;4.204;2023-03-23T11:38:55;14.90;99.90
15717;DHT22;7960;50.908;4.204;2023-03-23T11:41:24;14.90;99.90
15717;DHT22;7960;50.908;4.204;2023-03-23T11:43:53;15.20;99.90
15717;DHT22;7960;50.908;4.204;2023-03-23T11:46:29;15.30;99.90
15717;DHT22;7960;50.908;4.204;2023-03-23T11:49:01;15.50;99.90
15717;DHT22;7960;50.908;4.204;2023-03-23T11:51:33;15.70;99.90
15717;DHT22;7960;50.908;4.204;2023-03-23T11:54:07;15.90;99.90
15717;DHT22;7960;50.908;4.204;2023-03-23T11:56:37;16.10;99.90
15717;DHT22;7960;50.908;4.204;2023-03-23T11:59:11;15.80;99.90
15717;DHT22;7960;50.908;4.204;2023-03-23T12:01:47;15.60;99.90
15717;DHT22;7960;50.908;4.204;2023-03-23T12:07:24;15.50;99.90
15717;DHT22;7960;50.908;4.204;2023-03-23T12:10:05;15.30;99.90
15717;DHT22;7960;50.908;4.204;2023-03-23T12:12:40;15.70;99.90
15717;DHT22;7960;50.908;4.204;2023-03-23T12:15:18;15.80;99.90
15717;DHT22;7960;50.908;4.204;2023-03-23T12:17:54;16.10;99.90
15717;DHT22;7960;50.908;4.204;2023-03-23T12:20:31;16.30;99.90
15717;DHT22;7960;50.908;4.204;2023-03-23T12:23:11;16.50;99.90
15717;DHT22;7960;50.908;4.204;2023-03-23T12:25:59;16.60;99.90
15717;DHT22;7960;50.908;4.204;2023-03-23T12:28:38;16.50;99.90
15717;DHT22;7960;50.908;4.204;2023-03-23T12:31:13;16.40;99.90
15717;DHT22;7960;50.908;4.204;2023-03-23T12:33:53;16.80;99.90
15717;DHT22;7960;50.908;4.204;2023-03-23T12:36:32;17.00;99.90
15717;DHT22;7960;50.908;4.204;2023-03-23T12:41:59;17.00;99.90
15717;DHT22;7960;50.908;4.204;2023-03-23T12:44:34;17.40;99.90
15717;DHT22;7960;50.908;4.204;2023-03-23T12:47:11;17.00;99.90
15717;DHT22;7960;50.908;4.204;2023-03-23T12:49:46;16.60;99.90
15717;DHT22;7960;50.908;4.204;2023-03-23T12:52:20;16.40;99.90
15717;DHT22;7960;50.908;4.204;2023-03-23T12:54:51;16.10;99.90
15717;DHT22;7960;50.908;4.204;2023-03-23T12:57:23;15.90;99.90
15717;DHT22;7960;50.908;4.204;2023-03-23T13:00:02;15.90;99.90
15717;DHT22;7960;50.908;4.204;2023-03-23T13:02:41;15.90;99.90
15717;DHT22;7960;50.908;4.204;2023-03-23T13:05:24;16.20;99.90
15717;DHT22;7960;50.908;4.204;2023-03-23T13:07:55;16.70;99.90
15717;DHT22;7960;50.908;4.204;2023-03-23T13:10:25;17.00;99.90
15717;DHT22;7960;50.908;4.204;2023-03-23T13:12:54;17.00;99.90
15717;DHT22;7960;50.908;4.204;2023-03-23T13:15:29;16.80;99.90
15717;DHT22;7960;50.908;4.204;2023-03-23T13:18:04;17.10;99.90
15717;DHT22;7960;50.908;4.204;2023-03-23T13:20:47;17.50;99.90
15717;DHT22;7960;50.908;4.204;2023-03-23T13:23:18;17.50;99.90
15717;DHT22;7960;50.908;4.204;2023-03-23T13:25:53;17.80;99.90
15717;DHT22;7960;50.908;4.204;2023-03-23T13:28:23;18.30;99.90
15717;DHT22;7960;50.908;4.204;2023-03-23T13:30:58;18.60;99.90
15717;DHT22;7960;50.908;4.204;2023-03-23T13:33:30;18.70;99.90
15717;DHT22;7960;50.908;4.204;2023-03-23T13:36:04;18.40;99.90
15717;DHT22;7960;50.908;4.204;2023-03-23T13:38:33;18.50;99.90
15717;DHT22;7960;50.908;4.204;2023-03-23T13:41:07;18.70;99.70
15717;DHT22;7960;50.908;4.204;2023-03-23T13:43:35;18.50;99.50
15717;DHT22;7960;50.908;4.204;2023-03-23T13:46:09;18.30;99.50
15717;DHT22;7960;50.908;4.204;2023-03-23T13:48:43;17.60;99.20
15717;DHT22;7960;50.908;4.204;2023-03-23T13:51:26;17.20;99.70
15717;DHT22;7960;50.908;4.204;2023-03-23T13:54:06;16.90;99.60
15717;DHT22;7960;50.908;4.204;2023-03-23T13:56:39;17.10;99.90
15717;DHT22;7960;50.908;4.204;2023-03-23T13:59:12;17.60;99.90
15717;DHT22;7960;50.908;4.204;2023-03-23T14:01:40;18.00;99.50
15717;DHT22;7960;50.908;4.204;2023-03-23T14:04:12;17.90;99.40
15717;DHT22;7960;50.908;4.204;2023-03-23T14:06:40;17.60;99.70
15717;DHT22;7960;50.908;4.204;2023-03-23T14:09:12;17.70;99.90
15717;DHT22;7960;50.908;4.204;2023-03-23T14:11:48;18.50;99.30
15717;DHT22;7960;50.908;4.204;2023-03-23T14:14:24;19.20;98.10
15717;DHT22;7960;50.908;4.204;2023-03-23T14:16:53;19.40;95.60
15717;DHT22;7960;50.908;4.204;2023-03-23T14:19:23;19.30;95.70
15717;DHT22;7960;50.908;4.204;2023-03-23T14:21:53;19.50;96.00
15717;DHT22;7960;50.908;4.204;2023-03-23T14:24:22;19.30;95.20
15717;DHT22;7960;50.908;4.204;2023-03-23T14:26:51;18.30;96.00
15717;DHT22;7960;50.908;4.204;2023-03-23T14:29:20;18.20;97.70
15717;DHT22;7960;50.908;4.204;2023-03-23T14:31:54;18.60;97.20
15717;DHT22;7960;50.908;4.204;2023-03-23T14:34:25;18.00;97.40
15717;DHT22;7960;50.908;4.204;2023-03-23T14:36:53;17.50;98.20
15717;DHT22;7960;50.908;4.204;2023-03-23T14:39:24;17.00;99.00
15717;DHT22;7960;50.908;4.204;2023-03-23T14:41:53;16.70;99.80
15717;DHT22;7960;50.908;4.204;2023-03-23T14:44:25;16.40;99.90
15717;DHT22;7960;50.908;4.204;2023-03-23T14:46:54;16.20;99.90
15717;DHT22;7960;50.908;4.204;2023-03-23T14:49:37;16.20;99.90
15717;DHT22;7960;50.908;4.204;2023-03-23T14:52:10;16.20;99.90
15717;DHT22;7960;50.908;4.204;2023-03-23T14:54:39;17.30;99.90
15717;DHT22;7960;50.908;4.204;2023-03-23T14:57:12;18.20;99.90
15717;DHT22;7960;50.908;4.204;2023-03-23T14:59:40;18.10;99.90
15717;DHT22;7960;50.908;4.204;2023-03-23T15:02:12;18.50;99.90
15717;DHT22;7960;50.908;4.204;2023-03-23T15:04:42;19.40;99.90
15717;DHT22;7960;50.908;4.204;2023-03-23T15:07:12;19.40;99.30
15717;DHT22;7960;50.908;4.204;2023-03-23T15:09:42;18.70;99.10
15717;DHT22;7960;50.908;4.204;2023-03-23T15:12:20;17.90;99.90
15717;DHT22;7960;50.908;4.204;2023-03-23T15:14:51;17.00;99.90
15717;DHT22;7960;50.908;4.204;2023-03-23T15:17:20;16.60;99.90
15717;DHT22;7960;50.908;4.204;2023-03-23T15:19:51;16.40;99.90
15717;DHT22;7960;50.908;4.204;2023-03-23T15:22:22;16.30;99.90
15717;DHT22;7960;50.908;4.204;2023-03-23T15:24:52;16.40;99.90
15717;DHT22;7960;50.908;4.204;2023-03-23T15:27:26;16.30;99.90
15717;DHT22;7960;50.908;4.204;2023-03-23T15:29:55;16.30;99.90
15717;DHT22;7960;50.908;4.204;2023-03-23T15:32:25;16.20;99.90
15717;DHT22;7960;50.908;4.204;2023-03-23T15:34:54;16.10;99.90
15717;DHT22;7960;50.908;4.204;2023-03-23T15:37:25;16.10;99.90
15717;DHT22;7960;50.908;4.204;2023-03-23T15:39:53;16.00;99.90
15717;DHT22;7960;50.908;4.204;2023-03-23T15:42:23;15.90;99.90
15717;DHT22;7960;50.908;4.204;2023-03-23T15:45:16;15.70;99.90
15717;DHT22;7960;50.908;4.204;2023-03-23T15:47:46;15.70;99.90
15717;DHT22;7960;50.908;4.204;2023-03-23T15:50:17;15.60;99.90
15717;DHT22;7960;50.908;4.204;2023-03-23T15:52:45;15.40;99.90
15717;DHT22;7960;50.908;4.204;2023-03-23T15:55:21;15.30;99.90
15717;DHT22;7960;50.908;4.204;2023-03-23T15:57:49;15.10;99.90
15717;DHT22;7960;50.908;4.204;2023-03-23T16:00:17;15.10;99.90
15717;DHT22;7960;50.908;4.204;2023-03-23T16:02:45;15.60;99.90
15717;DHT22;7960;50.908;4.204;2023-03-23T16:05:14;15.70;99.90
15717;DHT22;7960;50.908;4.204;2023-03-23T16:07:41;15.70;99.90
15717;DHT22;7960;50.908;4.204;2023-03-23T16:10:15;15.70;99.90
15717;DHT22;7960;50.908;4.204;2023-03-23T16:12:43;15.90;99.90
15717;DHT22;7960;50.908;4.204;2023-03-23T16:15:11;15.90;99.90
15717;DHT22;7960;50.908;4.204;2023-03-23T16:17:37;16.20;99.90
15717;DHT22;7960;50.908;4.204;2023-03-23T16:20:11;16.40;99.90